sensor_id;sensor_type;location;lat;lon;timestamp;temperature;humidity
3736;DHT22;1883;48.202;16.310;2022-11-15T00:58:00;7.20;44.00
3736;DHT22;1883;48.202;16.310;2022-11-15T01:02:57;7.20;43.50
3736;DHT22;1883;48.202;16.310;2022-11-15T01:05:24;7.20;43.50
3736;DHT22;1883;48.202;16.310;2022-11-15T01:07:54;7.20;43.60
3736;DHT22;1883;48.202;16.310;2022-11-15T01:10:22;7.20;43.50
3736;DHT22;1883;48.202;16.310;2022-11-15T01:12:49;7.30;43.50
3736;DHT22;1883;48.202;16.310;2022-11-15T01:15:18;7.30;43.40
3736;DHT22;1883;48.202;16.310;2022-11-15T01:17:46;7.30;43.80
3736;DHT22;1883;48.202;16.310;2022-11-15T01:20:14;7.20;43.80
3736;DHT22;1883;48.202;16.310;2022-11-15T01:22:41;7.20;43.50
3736;DHT22;1883;48.202;16.310;2022-11-15T01:25:08;7.20;43.60
3736;DHT22;1883;48.202;16.310;2022-11-15T01:27:35;7.20;43.40
3736;DHT22;1883;48.202;16.310;2022-11-15T01:30:02;7.20;43.40
3736;DHT22;1883;48.202;16.310;2022-11-15T01:32:31;7.10;43.40
3736;DHT22;1883;48.202;16.310;2022-11-15T01:34:58;7.10;43.30
3736;DHT22;1883;48.202;16.310;2022-11-15T01:37:26;7.20;43.30
3736;DHT22;1883;48.202;16.310;2022-11-15T01:39:53;7.20;43.20
3736;DHT22;1883;48.202;16.310;2022-11-15T01:42:20;7.20;43.30
3736;DHT22;1883;48.202;16.310;2022-11-15T01:44:48;7.20;43.10
3736;DHT22;1883;48.202;16.310;2022-11-15T01:47:17;7.10;43.30
3736;DHT22;1883;48.202;16.310;2022-11-15T01:49:51;7.10;43.20
3736;DHT22;1883;48.202;16.310;2022-11-15T01:52:20;7.10;43.00
3736;DHT22;1883;48.202;16.310;2022-11-15T01:54:51;7.20;43.00
3736;DHT22;1883;48.202;16.310;2022-11-15T01:57:20;7.10;43.00
3736;DHT22;1883;48.202;16.310;2022-11-15T01:59:47;7.20;42.90
3736;DHT22;1883;48.202;16.310;2022-11-15T02:02:14;7.20;43.10
3736;DHT22;1883;48.202;16.310;2022-11-15T02:04:43;7.10;43.00
3736;DHT22;1883;48.202;16.310;2022-11-15T02:07:15;7.10;43.20
3736;DHT22;1883;48.202;16.310;2022-11-15T02:09:43;7.10;42.90
3736;DHT22;1883;48.202;16.310;2022-11-15T02:12:13;7.10;42.90
3736;DHT22;1883;48.202;16.310;2022-11-15T02:14:43;7.10;42.90
3736;DHT22;1883;48.202;16.310;2022-11-15T02:17:24;7.10;42.70
3736;DHT22;1883;48.202;16.310;2022-11-15T02:23:11;7.10;42.90
3736;DHT22;1883;48.202;16.310;2022-11-15T02:25:50;7.10;42.50
3736;DHT22;1883;48.202;16.310;2022-11-15T02:28:44;7.10;42.70
3736;DHT22;1883;48.202;16.310;2022-11-15T02:31:18;7.10;42.50
3736;DHT22;1883;48.202;16.310;2022-11-15T02:33:54;7.10;42.50
3736;DHT22;1883;48.202;16.310;2022-11-15T02:36:33;7.10;42.60
3736;DHT22;1883;48.202;16.310;2022-11-15T02:39:05;7.10;42.50
3736;DHT22;1883;48.202;16.310;2022-11-15T02:41:40;7.20;42.40
3736;DHT22;1883;48.202;16.310;2022-11-15T02:44:13;7.20;42.20
3736;DHT22;1883;48.202;16.310;2022-11-15T02:49:18;7.20;42.40
3736;DHT22;1883;48.202;16.310;2022-11-15T02:51:47;7.20;42.20
3736;DHT22;1883;48.202;16.310;2022-11-15T02:54:20;7.30;42.20
3736;DHT22;1883;48.202;16.310;2022-11-15T02:56:48;7.30;42.40
3736;DHT22;1883;48.202;16.310;2022-11-15T02:59:42;7.30;42.10
3736;DHT22;1883;48.202;16.310;2022-11-15T03:02:20;7.30;42.50
3736;DHT22;1883;48.202;16.310;2022-11-15T03:04:54;7.20;42.70
3736;DHT22;1883;48.202;16.310;2022-11-15T03:07:30;7.20;42.60
3736;DHT22;1883;48.202;16.310;2022-11-15T03:10:06;7.20;42.40
3736;DHT22;1883;48.202;16.310;2022-11-15T03:12:40;7.20;42.60
3736;DHT22;1883;48.202;16.310;2022-11-15T03:15:12;7.10;42.40
3736;DHT22;1883;48.202;16.310;2022-11-15T03:17:47;7.10;42.40
3736;DHT22;1883;48.202;16.310;2022-11-15T03:20:18;7.20;42.30
3736;DHT22;1883;48.202;16.310;2022-11-15T03:22:47;7.20;42.40
3736;DHT22;1883;48.202;16.310;2022-11-15T03:25:18;7.20;42.50
3736;DHT22;1883;48.202;16.310;2022-11-15T03:27:48;7.30;42.60
3736;DHT22;1883;48.202;16.310;2022-11-15T03:30:17;7.10;42.40
3736;DHT22;1883;48.202;16.310;2022-11-15T03:32:47;7.20;42.40
3736;DHT22;1883;48.202;16.310;2022-11-15T03:35:17;7.10;42.50
3736;DHT22;1883;48.202;16.310;2022-11-15T03:37:49;7.20;42.40
3736;DHT22;1883;48.202;16.310;2022-11-15T03:40:22;7.30;42.60
3736;DHT22;1883;48.202;16.310;2022-11-15T03:42:59;7.20;42.60
3736;DHT22;1883;48.202;16.310;2022-11-15T03:45:28;7.20;42.70
3736;DHT22;1883;48.202;16.310;2022-11-15T03:48:01;7.30;42.30
3736;DHT22;1883;48.202;16.310;2022-11-15T03:50:30;7.20;42.40
3736;DHT22;1883;48.202;16.310;2022-11-15T03:52:58;7.20;42.40
3736;DHT22;1883;48.202;16.310;2022-11-15T03:55:26;7.10;42.60
3736;DHT22;1883;48.202;16.310;2022-11-15T03:57:54;7.20;42.50
3736;DHT22;1883;48.202;16.310;2022-11-15T04:00:23;7.10;42.40
3736;DHT22;1883;48.202;16.310;2022-11-15T04:02:50;7.30;42.30
3736;DHT22;1883;48.202;16.310;2022-11-15T04:05:18;7.30;42.60
3736;DHT22;1883;48.202;16.310;2022-11-15T04:07:46;7.30;42.40
3736;DHT22;1883;48.202;16.310;2022-11-15T04:10:13;7.30;42.70
3736;DHT22;1883;48.202;16.310;2022-11-15T04:12:42;7.30;42.80
3736;DHT22;1883;48.202;16.310;2022-11-15T04:15:15;7.40;42.80
3736;DHT22;1883;48.202;16.310;2022-11-15T04:17:44;7.30;42.70
3736;DHT22;1883;48.202;16.310;2022-11-15T04:20:14;7.30;42.80
3736;DHT22;1883;48.202;16.310;2022-11-15T04:23:02;7.40;42.90
3736;DHT22;1883;48.202;16.310;2022-11-15T04:25:49;7.30;43.00
3736;DHT22;1883;48.202;16.310;2022-11-15T04:28:17;7.30;42.90
3736;DHT22;1883;48.202;16.310;2022-11-15T04:30:45;7.20;42.80
3736;DHT22;1883;48.202;16.310;2022-11-15T04:33:12;7.30;42.90
3736;DHT22;1883;48.202;16.310;2022-11-15T04:35:40;7.30;43.00
3736;DHT22;1883;48.202;16.310;2022-11-15T04:38:10;7.30;42.90
3736;DHT22;1883;48.202;16.310;2022-11-15T04:40:37;7.30;43.00
3736;DHT22;1883;48.202;16.310;2022-11-15T04:43:04;7.30;43.20
3736;DHT22;1883;48.202;16.310;2022-11-15T04:45:31;7.20;43.00
3736;DHT22;1883;48.202;16.310;2022-11-15T04:47:58;7.20;43.10
3736;DHT22;1883;48.202;16.310;2022-11-15T04:50:25;7.20;43.00
3736;DHT22;1883;48.202;16.310;2022-11-15T04:52:53;7.20;42.90
3736;DHT22;1883;48.202;16.310;2022-11-15T04:55:22;7.30;42.80
3736;DHT22;1883;48.202;16.310;2022-11-15T04:57:57;7.30;42.90
